sensor_id;sensor_type;location;lat;lon;timestamp;P1;P2;P0
73623;PMS5003;61921;53.226;-1.296;2023-04-19T00:01:04;46;41;
73623;PMS5003;61921;53.226;-1.296;2023-04-19T00:03:30;41;39;
73623;PMS5003;61921;53.226;-1.296;2023-04-19T00:05:55;48;44;
73623;PMS5003;61921;53.226;-1.296;2023-04-19T00:08:21;49;47;
73623;PMS5003;61921;53.226;-1.296;2023-04-19T00:10:46;42;38;
73623;PMS5003;61921;53.226;-1.296;2023-04-19T00:13:12;40;38;
73623;PMS5003;61921;53.226;-1.296;2023-04-19T00:15:37;53;47;
73623;PMS5003;61921;53.226;-1.296;2023-04-19T00:18:03;46;41;
73623;PMS5003;61921;53.226;-1.296;2023-04-19T00:20:28;44;43;
73623;PMS5003;61921;53.226;-1.296;2023-04-19T00:22:54;46;41;
73623;PMS5003;61921;53.226;-1.296;2023-04-19T00:25:19;55;48;
73623;PMS5003;61921;53.226;-1.296;2023-04-19T00:27:45;54;45;
73623;PMS5003;61921;53.226;-1.296;2023-04-19T00:30:10;47;44;
73623;PMS5003;61921;53.226;-1.296;2023-04-19T00:32:36;47;41;
73623;PMS5003;61921;53.226;-1.296;2023-04-19T00:35:01;48;43;
73623;PMS5003;61921;53.226;-1.296;2023-04-19T00:37:27;47;42;
73623;PMS5003;61921;53.226;-1.296;2023-04-19T00:39:53;49;47;
73623;PMS5003;61921;53.226;-1.296;2023-04-19T00:42:19;51;45;
73623;PMS5003;61921;53.226;-1.296;2023-04-19T00:44:45;44;44;
73623;PMS5003;61921;53.226;-1.296;2023-04-19T00:47:10;43;40;
73623;PMS5003;61921;53.226;-1.296;2023-04-19T00:49:35;51;44;
73623;PMS5003;61921;53.226;-1.296;2023-04-19T00:52:00;42;40;
73623;PMS5003;61921;53.226;-1.296;2023-04-19T00:54:26;53;47;
73623;PMS5003;61921;53.226;-1.296;2023-04-19T00:56:51;44;38;
73623;PMS5003;61921;53.226;-1.296;2023-04-19T00:59:17;52;49;
73623;PMS5003;61921;53.226;-1.296;2023-04-19T01:01:42;49;46;
73623;PMS5003;61921;53.226;-1.296;2023-04-19T01:04:07;49;45;
73623;PMS5003;61921;53.226;-1.296;2023-04-19T01:06:33;53;44;
73623;PMS5003;61921;53.226;-1.296;2023-04-19T01:08:58;50;45;
73623;PMS5003;61921;53.226;-1.296;2023-04-19T01:11:24;49;48;
73623;PMS5003;61921;53.226;-1.296;2023-04-19T01:13:49;45;43;
73623;PMS5003;61921;53.226;-1.296;2023-04-19T01:16:15;44;44;
73623;PMS5003;61921;53.226;-1.296;2023-04-19T01:18:40;47;43;
73623;PMS5003;61921;53.226;-1.296;2023-04-19T01:21:06;59;47;
73623;PMS5003;61921;53.226;-1.296;2023-04-19T01:23:31;47;43;
73623;PMS5003;61921;53.226;-1.296;2023-04-19T01:25:56;46;42;
73623;PMS5003;61921;53.226;-1.296;2023-04-19T01:28:22;55;47;
73623;PMS5003;61921;53.226;-1.296;2023-04-19T01:30:47;45;42;
73623;PMS5003;61921;53.226;-1.296;2023-04-19T01:33:12;46;41;
73623;PMS5003;61921;53.226;-1.296;2023-04-19T01:35:38;46;42;
73623;PMS5003;61921;53.226;-1.296;2023-04-19T01:38:03;46;40;
73623;PMS5003;61921;53.226;-1.296;2023-04-19T01:40:28;48;46;
73623;PMS5003;61921;53.226;-1.296;2023-04-19T01:42:54;44;40;
73623;PMS5003;61921;53.226;-1.296;2023-04-19T01:45:20;44;41;
73623;PMS5003;61921;53.226;-1.296;2023-04-19T01:47:45;53;44;
73623;PMS5003;61921;53.226;-1.296;2023-04-19T01:50:10;42;39;
73623;PMS5003;61921;53.226;-1.296;2023-04-19T01:52:36;46;44;
73623;PMS5003;61921;53.226;-1.296;2023-04-19T01:55:02;54;48;
73623;PMS5003;61921;53.226;-1.296;2023-04-19T01:57:27;38;38;
73623;PMS5003;61921;53.226;-1.296;2023-04-19T01:59:52;42;39;
73623;PMS5003;61921;53.226;-1.296;2023-04-19T02:02:18;52;42;
73623;PMS5003;61921;53.226;-1.296;2023-04-19T02:04:43;43;39;
73623;PMS5003;61921;53.226;-1.296;2023-04-19T02:07:08;49;44;
73623;PMS5003;61921;53.226;-1.296;2023-04-19T02:09:34;43;34;
73623;PMS5003;61921;53.226;-1.296;2023-04-19T02:11:59;43;41;
73623;PMS5003;61921;53.226;-1.296;2023-04-19T02:14:25;43;41;
73623;PMS5003;61921;53.226;-1.296;2023-04-19T02:16:50;45;41;
73623;PMS5003;61921;53.226;-1.296;2023-04-19T02:19:15;44;41;
73623;PMS5003;61921;53.226;-1.296;2023-04-19T02:21:41;41;35;
73623;PMS5003;61921;53.226;-1.296;2023-04-19T02:24:07;46;42;
73623;PMS5003;61921;53.226;-1.296;2023-04-19T02:26:32;55;47;
73623;PMS5003;61921;53.226;-1.296;2023-04-19T02:28:58;35;34;
73623;PMS5003;61921;53.226;-1.296;2023-04-19T02:31:23;40;39;
73623;PMS5003;61921;53.226;-1.296;2023-04-19T02:33:49;49;46;
73623;PMS5003;61921;53.226;-1.296;2023-04-19T02:36:14;52;39;
73623;PMS5003;61921;53.226;-1.296;2023-04-19T02:38:40;46;42;
73623;PMS5003;61921;53.226;-1.296;2023-04-19T02:41:05;51;44;
73623;PMS5003;61921;53.226;-1.296;2023-04-19T02:43:31;43;41;
73623;PMS5003;61921;53.226;-1.296;2023-04-19T02:45:56;53;46;
73623;PMS5003;61921;53.226;-1.296;2023-04-19T02:48:22;36;33;
73623;PMS5003;61921;53.226;-1.296;2023-04-19T02:50:47;45;40;
73623;PMS5003;61921;53.226;-1.296;2023-04-19T02:53:13;43;39;
73623;PMS5003;61921;53.226;-1.296;2023-04-19T02:55:38;34;31;
73623;PMS5003;61921;53.226;-1.296;2023-04-19T02:58:03;41;37;
73623;PMS5003;61921;53.226;-1.296;2023-04-19T03:00:29;42;39;
73623;PMS5003;61921;53.226;-1.296;2023-04-19T03:02:55;40;37;
73623;PMS5003;61921;53.226;-1.296;2023-04-19T03:05:20;41;38;
73623;PMS5003;61921;53.226;-1.296;2023-04-19T03:07:46;49;42;
73623;PMS5003;61921;53.226;-1.296;2023-04-19T03:10:11;44;38;
73623;PMS5003;61921;53.226;-1.296;2023-04-19T03:12:37;48;40;
73623;PMS5003;61921;53.226;-1.296;2023-04-19T03:15:03;46;41;
73623;PMS5003;61921;53.226;-1.296;2023-04-19T03:17:28;37;35;
73623;PMS5003;61921;53.226;-1.296;2023-04-19T03:19:54;38;35;
73623;PMS5003;61921;53.226;-1.296;2023-04-19T03:22:19;50;48;
73623;PMS5003;61921;53.226;-1.296;2023-04-19T03:24:45;44;42;
73623;PMS5003;61921;53.226;-1.296;2023-04-19T03:27:10;42;35;
73623;PMS5003;61921;53.226;-1.296;2023-04-19T03:29:35;43;40;
73623;PMS5003;61921;53.226;-1.296;2023-04-19T03:32:01;43;38;
73623;PMS5003;61921;53.226;-1.296;2023-04-19T03:34:27;38;35;
73623;PMS5003;61921;53.226;-1.296;2023-04-19T03:36:52;43;37;
73623;PMS5003;61921;53.226;-1.296;2023-04-19T03:39:18;38;33;
73623;PMS5003;61921;53.226;-1.296;2023-04-19T03:41:43;37;37;
73623;PMS5003;61921;53.226;-1.296;2023-04-19T03:44:08;44;37;
73623;PMS5003;61921;53.226;-1.296;2023-04-19T03:46:34;41;38;
73623;PMS5003;61921;53.226;-1.296;2023-04-19T03:48:59;45;38;
73623;PMS5003;61921;53.226;-1.296;2023-04-19T03:51:24;35;32;
73623;PMS5003;61921;53.226;-1.296;2023-04-19T03:53:50;41;36;
73623;PMS5003;61921;53.226;-1.296;2023-04-19T03:56:15;43;37;
73623;PMS5003;61921;53.226;-1.296;2023-04-19T03:58:41;44;40;
73623;PMS5003;61921;53.226;-1.296;2023-04-19T04:01:16;39;35;
73623;PMS5003;61921;53.226;-1.296;2023-04-19T04:03:32;36;33;
73623;PMS5003;61921;53.226;-1.296;2023-04-19T04:05:58;35;31;
73623;PMS5003;61921;53.226;-1.296;2023-04-19T04:08:24;35;32;
73623;PMS5003;61921;53.226;-1.296;2023-04-19T04:10:50;43;41;
73623;PMS5003;61921;53.226;-1.296;2023-04-19T04:13:16;40;33;
73623;PMS5003;61921;53.226;-1.296;2023-04-19T04:15:40;39;37;
73623;PMS5003;61921;53.226;-1.296;2023-04-19T04:18:06;39;36;
73623;PMS5003;61921;53.226;-1.296;2023-04-19T04:20:31;42;40;
73623;PMS5003;61921;53.226;-1.296;2023-04-19T04:22:56;30;29;
73623;PMS5003;61921;53.226;-1.296;2023-04-19T04:25:22;40;36;
73623;PMS5003;61921;53.226;-1.296;2023-04-19T04:27:49;34;30;
73623;PMS5003;61921;53.226;-1.296;2023-04-19T04:30:13;38;32;
73623;PMS5003;61921;53.226;-1.296;2023-04-19T04:32:38;34;31;
73623;PMS5003;61921;53.226;-1.296;2023-04-19T04:35:04;40;34;
73623;PMS5003;61921;53.226;-1.296;2023-04-19T04:37:30;34;28;
73623;PMS5003;61921;53.226;-1.296;2023-04-19T04:39:54;29;25;
73623;PMS5003;61921;53.226;-1.296;2023-04-19T04:42:20;37;34;
73623;PMS5003;61921;53.226;-1.296;2023-04-19T04:44:45;40;36;
73623;PMS5003;61921;53.226;-1.296;2023-04-19T04:47:11;37;33;
73623;PMS5003;61921;53.226;-1.296;2023-04-19T04:49:36;38;36;
73623;PMS5003;61921;53.226;-1.296;2023-04-19T04:52:02;42;37;
73623;PMS5003;61921;53.226;-1.296;2023-04-19T04:54:27;36;33;
73623;PMS5003;61921;53.226;-1.296;2023-04-19T04:56:53;42;38;
73623;PMS5003;61921;53.226;-1.296;2023-04-19T04:59:19;34;32;
73623;PMS5003;61921;53.226;-1.296;2023-04-19T05:01:44;35;35;
73623;PMS5003;61921;53.226;-1.296;2023-04-19T05:04:10;38;32;
73623;PMS5003;61921;53.226;-1.296;2023-04-19T05:06:35;34;28;
73623;PMS5003;61921;53.226;-1.296;2023-04-19T05:09:01;38;32;
73623;PMS5003;61921;53.226;-1.296;2023-04-19T05:11:27;34;33;
73623;PMS5003;61921;53.226;-1.296;2023-04-19T05:13:52;40;37;
73623;PMS5003;61921;53.226;-1.296;2023-04-19T05:16:18;48;41;
73623;PMS5003;61921;53.226;-1.296;2023-04-19T05:18:43;39;33;
73623;PMS5003;61921;53.226;-1.296;2023-04-19T05:21:09;41;34;
73623;PMS5003;61921;53.226;-1.296;2023-04-19T05:23:35;37;34;
73623;PMS5003;61921;53.226;-1.296;2023-04-19T05:26:01;43;38;
73623;PMS5003;61921;53.226;-1.296;2023-04-19T05:28:26;39;37;
73623;PMS5003;61921;53.226;-1.296;2023-04-19T05:30:51;48;38;
73623;PMS5003;61921;53.226;-1.296;2023-04-19T05:33:17;41;39;
73623;PMS5003;61921;53.226;-1.296;2023-04-19T05:35:42;49;42;
73623;PMS5003;61921;53.226;-1.296;2023-04-19T05:38:07;47;42;
73623;PMS5003;61921;53.226;-1.296;2023-04-19T05:40:32;39;37;
73623;PMS5003;61921;53.226;-1.296;2023-04-19T05:42:57;40;37;
73623;PMS5003;61921;53.226;-1.296;2023-04-19T05:45:23;49;42;
73623;PMS5003;61921;53.226;-1.296;2023-04-19T05:47:48;48;41;
73623;PMS5003;61921;53.226;-1.296;2023-04-19T05:50:14;39;35;
73623;PMS5003;61921;53.226;-1.296;2023-04-19T05:52:39;50;47;
73623;PMS5003;61921;53.226;-1.296;2023-04-19T05:55:05;41;35;
73623;PMS5003;61921;53.226;-1.296;2023-04-19T05:57:30;53;45;
73623;PMS5003;61921;53.226;-1.296;2023-04-19T05:59:55;50;44;
73623;PMS5003;61921;53.226;-1.296;2023-04-19T06:02:21;44;35;
73623;PMS5003;61921;53.226;-1.296;2023-04-19T06:04:46;37;31;
73623;PMS5003;61921;53.226;-1.296;2023-04-19T06:07:12;47;43;
73623;PMS5003;61921;53.226;-1.296;2023-04-19T06:09:37;45;43;
73623;PMS5003;61921;53.226;-1.296;2023-04-19T06:12:03;38;37;
73623;PMS5003;61921;53.226;-1.296;2023-04-19T06:14:28;49;41;
73623;PMS5003;61921;53.226;-1.296;2023-04-19T06:16:54;45;42;
73623;PMS5003;61921;53.226;-1.296;2023-04-19T06:19:19;47;38;
73623;PMS5003;61921;53.226;-1.296;2023-04-19T06:21:45;52;48;
73623;PMS5003;61921;53.226;-1.296;2023-04-19T06:24:10;54;39;
73623;PMS5003;61921;53.226;-1.296;2023-04-19T06:26:36;50;41;
73623;PMS5003;61921;53.226;-1.296;2023-04-19T06:29:01;50;41;
73623;PMS5003;61921;53.226;-1.296;2023-04-19T06:31:27;54;45;
73623;PMS5003;61921;53.226;-1.296;2023-04-19T06:33:52;54;47;
73623;PMS5003;61921;53.226;-1.296;2023-04-19T06:36:18;52;47;
73623;PMS5003;61921;53.226;-1.296;2023-04-19T06:38:43;52;46;
73623;PMS5003;61921;53.226;-1.296;2023-04-19T06:41:09;52;47;
73623;PMS5003;61921;53.226;-1.296;2023-04-19T06:43:35;55;52;
73623;PMS5003;61921;53.226;-1.296;2023-04-19T06:46:01;50;45;
73623;PMS5003;61921;53.226;-1.296;2023-04-19T06:48:26;51;45;
73623;PMS5003;61921;53.226;-1.296;2023-04-19T06:50:52;58;44;
73623;PMS5003;61921;53.226;-1.296;2023-04-19T06:53:18;51;47;
73623;PMS5003;61921;53.226;-1.296;2023-04-19T06:55:43;47;44;
73623;PMS5003;61921;53.226;-1.296;2023-04-19T06:58:08;50;45;
73623;PMS5003;61921;53.226;-1.296;2023-04-19T07:00:34;61;50;
73623;PMS5003;61921;53.226;-1.296;2023-04-19T07:02:59;47;42;
73623;PMS5003;61921;53.226;-1.296;2023-04-19T07:05:25;49;47;
73623;PMS5003;61921;53.226;-1.296;2023-04-19T07:07:50;49;46;
73623;PMS5003;61921;53.226;-1.296;2023-04-19T07:10:15;48;45;
73623;PMS5003;61921;53.226;-1.296;2023-04-19T07:12:41;45;43;
73623;PMS5003;61921;53.226;-1.296;2023-04-19T07:15:07;51;45;
73623;PMS5003;61921;53.226;-1.296;2023-04-19T07:17:33;47;45;
73623;PMS5003;61921;53.226;-1.296;2023-04-19T07:19:58;43;38;
73623;PMS5003;61921;53.226;-1.296;2023-04-19T07:22:24;45;41;
73623;PMS5003;61921;53.226;-1.296;2023-04-19T07:24:49;43;41;
73623;PMS5003;61921;53.226;-1.296;2023-04-19T07:27:15;45;42;
73623;PMS5003;61921;53.226;-1.296;2023-04-19T07:29:40;42;37;
73623;PMS5003;61921;53.226;-1.296;2023-04-19T07:32:06;47;43;
73623;PMS5003;61921;53.226;-1.296;2023-04-19T07:34:32;48;45;
73623;PMS5003;61921;53.226;-1.296;2023-04-19T07:36:57;40;38;
73623;PMS5003;61921;53.226;-1.296;2023-04-19T07:39:22;46;44;
73623;PMS5003;61921;53.226;-1.296;2023-04-19T07:41:47;47;41;
73623;PMS5003;61921;53.226;-1.296;2023-04-19T07:44:13;56;50;
73623;PMS5003;61921;53.226;-1.296;2023-04-19T07:46:40;45;39;
73623;PMS5003;61921;53.226;-1.296;2023-04-19T07:49:04;50;46;
73623;PMS5003;61921;53.226;-1.296;2023-04-19T07:51:30;46;44;
73623;PMS5003;61921;53.226;-1.296;2023-04-19T07:53:55;46;43;
73623;PMS5003;61921;53.226;-1.296;2023-04-19T07:56:20;55;47;
73623;PMS5003;61921;53.226;-1.296;2023-04-19T07:58:46;55;48;
73623;PMS5003;61921;53.226;-1.296;2023-04-19T08:01:11;45;40;
73623;PMS5003;61921;53.226;-1.296;2023-04-19T08:03:36;41;38;
73623;PMS5003;61921;53.226;-1.296;2023-04-19T08:06:03;43;43;
73623;PMS5003;61921;53.226;-1.296;2023-04-19T08:08:27;42;40;
73623;PMS5003;61921;53.226;-1.296;2023-04-19T08:10:53;49;45;
73623;PMS5003;61921;53.226;-1.296;2023-04-19T08:13:18;46;42;
73623;PMS5003;61921;53.226;-1.296;2023-04-19T08:15:44;48;45;
73623;PMS5003;61921;53.226;-1.296;2023-04-19T08:18:10;51;45;
73623;PMS5003;61921;53.226;-1.296;2023-04-19T08:20:36;46;43;
73623;PMS5003;61921;53.226;-1.296;2023-04-19T08:23:01;45;40;
73623;PMS5003;61921;53.226;-1.296;2023-04-19T08:25:26;44;41;
73623;PMS5003;61921;53.226;-1.296;2023-04-19T08:27:51;49;45;
73623;PMS5003;61921;53.226;-1.296;2023-04-19T08:30:17;48;40;
73623;PMS5003;61921;53.226;-1.296;2023-04-19T08:32:42;47;44;
73623;PMS5003;61921;53.226;-1.296;2023-04-19T08:35:08;47;43;
73623;PMS5003;61921;53.226;-1.296;2023-04-19T08:37:33;41;40;
73623;PMS5003;61921;53.226;-1.296;2023-04-19T08:39:59;51;44;
73623;PMS5003;61921;53.226;-1.296;2023-04-19T08:42:24;42;37;
73623;PMS5003;61921;53.226;-1.296;2023-04-19T08:44:49;50;46;
73623;PMS5003;61921;53.226;-1.296;2023-04-19T08:47:15;45;44;
73623;PMS5003;61921;53.226;-1.296;2023-04-19T08:49:40;42;35;
73623;PMS5003;61921;53.226;-1.296;2023-04-19T08:52:05;45;44;
73623;PMS5003;61921;53.226;-1.296;2023-04-19T08:54:31;35;32;
73623;PMS5003;61921;53.226;-1.296;2023-04-19T08:56:57;50;45;
73623;PMS5003;61921;53.226;-1.296;2023-04-19T08:59:22;43;40;
73623;PMS5003;61921;53.226;-1.296;2023-04-19T09:01:47;50;47;
73623;PMS5003;61921;53.226;-1.296;2023-04-19T09:04:13;49;45;
73623;PMS5003;61921;53.226;-1.296;2023-04-19T09:06:39;44;40;
73623;PMS5003;61921;53.226;-1.296;2023-04-19T09:09:13;50;46;
73623;PMS5003;61921;53.226;-1.296;2023-04-19T09:16:23;43;41;
73623;PMS5003;61921;53.226;-1.296;2023-04-19T09:21:11;49;43;
73623;PMS5003;61921;53.226;-1.296;2023-04-19T09:23:36;44;40;
73623;PMS5003;61921;53.226;-1.296;2023-04-19T09:26:01;45;41;
73623;PMS5003;61921;53.226;-1.296;2023-04-19T09:28:27;38;37;
73623;PMS5003;61921;53.226;-1.296;2023-04-19T09:30:52;41;40;
73623;PMS5003;61921;53.226;-1.296;2023-04-19T09:35:45;39;37;
73623;PMS5003;61921;53.226;-1.296;2023-04-19T09:38:09;41;41;
73623;PMS5003;61921;53.226;-1.296;2023-04-19T09:40:35;41;40;
73623;PMS5003;61921;53.226;-1.296;2023-04-19T09:43:00;42;38;
73623;PMS5003;61921;53.226;-1.296;2023-04-19T09:45:25;49;45;
73623;PMS5003;61921;53.226;-1.296;2023-04-19T09:50:16;38;36;
73623;PMS5003;61921;53.226;-1.296;2023-04-19T09:52:41;43;42;
73623;PMS5003;61921;53.226;-1.296;2023-04-19T09:55:08;41;38;
73623;PMS5003;61921;53.226;-1.296;2023-04-19T09:57:33;41;37;
73623;PMS5003;61921;53.226;-1.296;2023-04-19T09:59:59;48;45;
73623;PMS5003;61921;53.226;-1.296;2023-04-19T10:02:24;43;41;
73623;PMS5003;61921;53.226;-1.296;2023-04-19T10:04:50;44;39;
73623;PMS5003;61921;53.226;-1.296;2023-04-19T10:07:15;42;42;
73623;PMS5003;61921;53.226;-1.296;2023-04-19T10:09:41;46;43;
73623;PMS5003;61921;53.226;-1.296;2023-04-19T10:12:12;41;40;
73623;PMS5003;61921;53.226;-1.296;2023-04-19T10:14:33;44;40;
73623;PMS5003;61921;53.226;-1.296;2023-04-19T10:16:58;48;41;
73623;PMS5003;61921;53.226;-1.296;2023-04-19T10:19:23;46;42;
73623;PMS5003;61921;53.226;-1.296;2023-04-19T10:21:48;39;38;
73623;PMS5003;61921;53.226;-1.296;2023-04-19T10:24:13;42;37;
73623;PMS5003;61921;53.226;-1.296;2023-04-19T10:29:04;36;35;
73623;PMS5003;61921;53.226;-1.296;2023-04-19T10:31:29;38;34;
73623;PMS5003;61921;53.226;-1.296;2023-04-19T10:33:55;29;27;
73623;PMS5003;61921;53.226;-1.296;2023-04-19T10:36:20;32;31;
73623;PMS5003;61921;53.226;-1.296;2023-04-19T10:38:46;37;34;
73623;PMS5003;61921;53.226;-1.296;2023-04-19T10:41:11;36;34;
73623;PMS5003;61921;53.226;-1.296;2023-04-19T10:43:37;36;36;
73623;PMS5003;61921;53.226;-1.296;2023-04-19T10:46:05;34;29;
73623;PMS5003;61921;53.226;-1.296;2023-04-19T10:48:32;32;30;
73623;PMS5003;61921;53.226;-1.296;2023-04-19T10:50:56;38;32;
73623;PMS5003;61921;53.226;-1.296;2023-04-19T10:55:49;25;24;
73623;PMS5003;61921;53.226;-1.296;2023-04-19T10:58:11;31;28;
73623;PMS5003;61921;53.226;-1.296;2023-04-19T11:00:36;31;29;
73623;PMS5003;61921;53.226;-1.296;2023-04-19T11:05:27;27;24;
73623;PMS5003;61921;53.226;-1.296;2023-04-19T11:07:52;28;26;
73623;PMS5003;61921;53.226;-1.296;2023-04-19T11:12:42;25;24;
73623;PMS5003;61921;53.226;-1.296;2023-04-19T11:15:08;31;25;
73623;PMS5003;61921;53.226;-1.296;2023-04-19T11:17:33;23;22;
73623;PMS5003;61921;53.226;-1.296;2023-04-19T11:19:59;25;25;
73623;PMS5003;61921;53.226;-1.296;2023-04-19T11:22:25;29;26;
73623;PMS5003;61921;53.226;-1.296;2023-04-19T11:24:49;24;22;
73623;PMS5003;61921;53.226;-1.296;2023-04-19T11:27:15;27;25;
73623;PMS5003;61921;53.226;-1.296;2023-04-19T11:29:40;26;22;
73623;PMS5003;61921;53.226;-1.296;2023-04-19T11:32:06;30;28;
73623;PMS5003;61921;53.226;-1.296;2023-04-19T11:34:34;24;24;
73623;PMS5003;61921;53.226;-1.296;2023-04-19T11:36:57;27;27;
73623;PMS5003;61921;53.226;-1.296;2023-04-19T11:39:22;24;22;
73623;PMS5003;61921;53.226;-1.296;2023-04-19T11:41:48;23;22;
73623;PMS5003;61921;53.226;-1.296;2023-04-19T11:44:14;29;25;
73623;PMS5003;61921;53.226;-1.296;2023-04-19T11:46:39;25;24;
73623;PMS5003;61921;53.226;-1.296;2023-04-19T11:49:04;28;24;
73623;PMS5003;61921;53.226;-1.296;2023-04-19T11:51:29;20;20;
73623;PMS5003;61921;53.226;-1.296;2023-04-19T11:53:54;24;23;
73623;PMS5003;61921;53.226;-1.296;2023-04-19T11:56:19;25;23;
73623;PMS5003;61921;53.226;-1.296;2023-04-19T11:58:45;22;20;
73623;PMS5003;61921;53.226;-1.296;2023-04-19T12:01:11;26;22;
73623;PMS5003;61921;53.226;-1.296;2023-04-19T12:03:39;22;21;
73623;PMS5003;61921;53.226;-1.296;2023-04-19T12:06:01;24;21;
73623;PMS5003;61921;53.226;-1.296;2023-04-19T12:08:31;22;20;
73623;PMS5003;61921;53.226;-1.296;2023-04-19T12:10:54;23;20;
73623;PMS5003;61921;53.226;-1.296;2023-04-19T12:13:16;20;19;
73623;PMS5003;61921;53.226;-1.296;2023-04-19T12:15:42;22;20;
73623;PMS5003;61921;53.226;-1.296;2023-04-19T12:18:08;21;21;
73623;PMS5003;61921;53.226;-1.296;2023-04-19T12:20:33;19;17;
73623;PMS5003;61921;53.226;-1.296;2023-04-19T12:22:59;20;20;
73623;PMS5003;61921;53.226;-1.296;2023-04-19T12:25:27;19;16;
73623;PMS5003;61921;53.226;-1.296;2023-04-19T12:27:49;23;18;
73623;PMS5003;61921;53.226;-1.296;2023-04-19T12:30:14;18;16;
73623;PMS5003;61921;53.226;-1.296;2023-04-19T12:32:40;18;16;
73623;PMS5003;61921;53.226;-1.296;2023-04-19T12:35:06;17;17;
73623;PMS5003;61921;53.226;-1.296;2023-04-19T12:37:31;15;14;
73623;PMS5003;61921;53.226;-1.296;2023-04-19T12:39:57;16;16;
73623;PMS5003;61921;53.226;-1.296;2023-04-19T12:42:22;15;15;
73623;PMS5003;61921;53.226;-1.296;2023-04-19T12:44:47;16;13;
73623;PMS5003;61921;53.226;-1.296;2023-04-19T12:47:13;20;17;
73623;PMS5003;61921;53.226;-1.296;2023-04-19T12:49:38;12;12;
73623;PMS5003;61921;53.226;-1.296;2023-04-19T12:52:05;14;13;
73623;PMS5003;61921;53.226;-1.296;2023-04-19T12:54:29;16;14;
73623;PMS5003;61921;53.226;-1.296;2023-04-19T12:56:54;14;12;
73623;PMS5003;61921;53.226;-1.296;2023-04-19T12:59:20;14;13;
73623;PMS5003;61921;53.226;-1.296;2023-04-19T13:01:46;18;16;
73623;PMS5003;61921;53.226;-1.296;2023-04-19T13:04:11;16;13;
73623;PMS5003;61921;53.226;-1.296;2023-04-19T13:06:37;17;14;
73623;PMS5003;61921;53.226;-1.296;2023-04-19T13:09:03;16;14;
73623;PMS5003;61921;53.226;-1.296;2023-04-19T13:11:28;13;13;
73623;PMS5003;61921;53.226;-1.296;2023-04-19T13:13:53;12;11;
73623;PMS5003;61921;53.226;-1.296;2023-04-19T13:16:18;11;11;
73623;PMS5003;61921;53.226;-1.296;2023-04-19T13:18:44;10;10;
73623;PMS5003;61921;53.226;-1.296;2023-04-19T13:21:09;11;9;
73623;PMS5003;61921;53.226;-1.296;2023-04-19T13:23:35;14;12;
73623;PMS5003;61921;53.226;-1.296;2023-04-19T13:26:00;12;12;
73623;PMS5003;61921;53.226;-1.296;2023-04-19T13:28:25;18;16;
73623;PMS5003;61921;53.226;-1.296;2023-04-19T13:30:50;12;9;
73623;PMS5003;61921;53.226;-1.296;2023-04-19T13:33:16;15;14;
73623;PMS5003;61921;53.226;-1.296;2023-04-19T13:35:41;11;11;
73623;PMS5003;61921;53.226;-1.296;2023-04-19T13:38:07;14;11;
73623;PMS5003;61921;53.226;-1.296;2023-04-19T13:40:32;17;12;
73623;PMS5003;61921;53.226;-1.296;2023-04-19T13:42:58;11;10;
73623;PMS5003;61921;53.226;-1.296;2023-04-19T13:45:23;13;11;
73623;PMS5003;61921;53.226;-1.296;2023-04-19T13:47:48;9;9;
73623;PMS5003;61921;53.226;-1.296;2023-04-19T13:50:14;11;9;
73623;PMS5003;61921;53.226;-1.296;2023-04-19T13:52:39;10;8;
73623;PMS5003;61921;53.226;-1.296;2023-04-19T13:55:04;10;7;
73623;PMS5003;61921;53.226;-1.296;2023-04-19T13:57:30;7;5;
73623;PMS5003;61921;53.226;-1.296;2023-04-19T13:59:55;10;8;
73623;PMS5003;61921;53.226;-1.296;2023-04-19T14:02:20;6;6;
73623;PMS5003;61921;53.226;-1.296;2023-04-19T14:04:45;8;7;
73623;PMS5003;61921;53.226;-1.296;2023-04-19T14:07:10;7;6;
73623;PMS5003;61921;53.226;-1.296;2023-04-19T14:09:36;5;4;
73623;PMS5003;61921;53.226;-1.296;2023-04-19T14:12:01;5;5;
73623;PMS5003;61921;53.226;-1.296;2023-04-19T14:14:26;7;7;
73623;PMS5003;61921;53.226;-1.296;2023-04-19T14:16:51;4;4;
73623;PMS5003;61921;53.226;-1.296;2023-04-19T14:19:17;7;6;
73623;PMS5003;61921;53.226;-1.296;2023-04-19T14:21:42;7;6;
73623;PMS5003;61921;53.226;-1.296;2023-04-19T14:24:12;5;5;
73623;PMS5003;61921;53.226;-1.296;2023-04-19T14:26:33;5;5;
73623;PMS5003;61921;53.226;-1.296;2023-04-19T14:28:58;4;4;
73623;PMS5003;61921;53.226;-1.296;2023-04-19T14:31:23;6;4;
73623;PMS5003;61921;53.226;-1.296;2023-04-19T14:33:48;5;4;
73623;PMS5003;61921;53.226;-1.296;2023-04-19T14:36:14;4;4;
73623;PMS5003;61921;53.226;-1.296;2023-04-19T14:38:39;4;4;
73623;PMS5003;61921;53.226;-1.296;2023-04-19T14:41:04;5;5;
73623;PMS5003;61921;53.226;-1.296;2023-04-19T14:43:29;6;4;
73623;PMS5003;61921;53.226;-1.296;2023-04-19T14:45:54;4;4;
73623;PMS5003;61921;53.226;-1.296;2023-04-19T14:48:19;6;4;
73623;PMS5003;61921;53.226;-1.296;2023-04-19T14:50:45;6;6;
73623;PMS5003;61921;53.226;-1.296;2023-04-19T14:53:10;5;4;
73623;PMS5003;61921;53.226;-1.296;2023-04-19T14:55:36;3;3;
73623;PMS5003;61921;53.226;-1.296;2023-04-19T14:58:01;4;4;
73623;PMS5003;61921;53.226;-1.296;2023-04-19T15:00:26;4;3;
73623;PMS5003;61921;53.226;-1.296;2023-04-19T15:02:52;4;4;
73623;PMS5003;61921;53.226;-1.296;2023-04-19T15:05:17;5;5;
73623;PMS5003;61921;53.226;-1.296;2023-04-19T15:07:42;4;3;
73623;PMS5003;61921;53.226;-1.296;2023-04-19T15:10:08;5;4;
73623;PMS5003;61921;53.226;-1.296;2023-04-19T15:12:32;6;4;
73623;PMS5003;61921;53.226;-1.296;2023-04-19T15:14:58;4;3;
73623;PMS5003;61921;53.226;-1.296;2023-04-19T15:17:23;6;4;
73623;PMS5003;61921;53.226;-1.296;2023-04-19T15:19:48;5;4;
73623;PMS5003;61921;53.226;-1.296;2023-04-19T15:22:14;4;2;
73623;PMS5003;61921;53.226;-1.296;2023-04-19T15:24:39;5;4;
73623;PMS5003;61921;53.226;-1.296;2023-04-19T15:27:04;5;4;
73623;PMS5003;61921;53.226;-1.296;2023-04-19T15:29:29;3;3;
73623;PMS5003;61921;53.226;-1.296;2023-04-19T15:31:55;3;3;
73623;PMS5003;61921;53.226;-1.296;2023-04-19T15:34:20;3;3;
73623;PMS5003;61921;53.226;-1.296;2023-04-19T15:36:45;4;4;
73623;PMS5003;61921;53.226;-1.296;2023-04-19T15:39:10;5;3;
73623;PMS5003;61921;53.226;-1.296;2023-04-19T15:41:36;4;4;
73623;PMS5003;61921;53.226;-1.296;2023-04-19T15:44:01;3;3;
73623;PMS5003;61921;53.226;-1.296;2023-04-19T15:46:26;6;5;
73623;PMS5003;61921;53.226;-1.296;2023-04-19T15:48:52;4;3;
73623;PMS5003;61921;53.226;-1.296;2023-04-19T15:51:17;3;3;
73623;PMS5003;61921;53.226;-1.296;2023-04-19T15:53:42;5;5;
73623;PMS5003;61921;53.226;-1.296;2023-04-19T15:56:07;6;6;
73623;PMS5003;61921;53.226;-1.296;2023-04-19T15:58:33;6;5;
73623;PMS5003;61921;53.226;-1.296;2023-04-19T16:00:58;6;4;
73623;PMS5003;61921;53.226;-1.296;2023-04-19T16:03:23;4;3;
73623;PMS5003;61921;53.226;-1.296;2023-04-19T16:05:48;5;4;
73623;PMS5003;61921;53.226;-1.296;2023-04-19T16:08:14;4;4;
73623;PMS5003;61921;53.226;-1.296;2023-04-19T16:10:39;7;6;
73623;PMS5003;61921;53.226;-1.296;2023-04-19T16:13:04;5;5;
73623;PMS5003;61921;53.226;-1.296;2023-04-19T16:15:30;3;3;